Time;durP1;ratioP1;P1;durP2;ratioP2;P2;SDS_P1;SDS_P2;PMS_P1;PMS_P2;Temp;Humidity;BMP_temperature;BMP_pressure;BME280_temperature;BME280_humidity;BME280_pressure;Samples;Min_cycle;Max_cycle;Signal;HPM_P1;HPM_P2
2023/06/30 01:19:54;;;;;;;27.40;9.45;;;;;;;;;;2545201;23;20025;-88
2023/06/30 01:21:16;;;;;;;28.75;10.88;;;;;;;;;;2461196;23;20032;-87
2023/06/30 01:23:09;;;;;;;19.80;8.02;;;;;;;;;;2491971;23;20567;-87
2023/06/30 01:24:35;;;;;;;23.63;9.38;;;;;;;;;;2489432;23;20428;-88
2023/06/30 01:25:58;;;;;;;18.25;7.82;;;;;;;;;;2506667;23;20025;-87
2023/06/30 01:27:22;;;;;;;23.25;9.57;;;;;;;;;;2528678;23;20028;-87
2023/06/30 01:28:51;;;;;;;16.13;7.32;;;;;;;;;;2539668;23;20009;-88
2023/06/30 01:30:29;;;;;;;21.52;9.27;;;;;;;;;;2534629;23;20017;-87
2023/06/30 01:33:50;;;;;;;18.38;7.72;;;;;;;;;;2540549;23;20006;-88
2023/06/30 01:35:11;;;;;;;21.92;9.27;;;;;;;;;;2532947;23;20013;-88
2023/06/30 01:36:32;;;;;;;14.00;7.03;;;;;;;;;;2530982;23;20058;-87
2023/06/30 01:37:54;;;;;;;12.65;6.93;;;;;;;;;;2529619;23;20522;-88
2023/06/30 01:39:19;;;;;;;21.67;8.73;;;;;;;;;;2527999;23;20009;-88
2023/06/30 01:40:40;;;;;;;20.13;8.23;;;;;;;;;;2528910;23;20384;-88
2023/06/30 01:42:04;;;;;;;17.25;6.88;;;;;;;;;;2499945;23;20550;-87
2023/06/30 01:43:32;;;;;;;25.50;9.07;;;;;;;;;;2529004;23;20531;-88
2023/06/30 01:44:53;;;;;;;14.95;7.20;;;;;;;;;;2531325;23;20053;-88
2023/06/30 01:46:30;;;;;;;19.77;9.35;;;;;;;;;;2529787;23;20010;-88
2023/06/30 01:50:09;;;;;;;15.25;7.25;;;;;;;;;;2545262;23;20265;-88
2023/06/30 01:51:33;;;;;;;34.60;14.10;;;;;;;;;;2530849;23;20014;-88
2023/06/30 01:52:57;;;;;;;16.25;7.47;;;;;;;;;;2531152;23;20021;-86
2023/06/30 01:54:21;;;;;;;15.32;7.10;;;;;;;;;;2529130;23;20014;-87
2023/06/30 01:56:00;;;;;;;14.15;6.97;;;;;;;;;;2530522;23;20378;-87
2023/06/30 01:57:27;;;;;;;16.40;7.65;;;;;;;;;;2526012;23;20018;-88
2023/06/30 01:59:06;;;;;;;15.95;7.72;;;;;;;;;;2531627;23;20079;-88
2023/06/30 02:01:00;;;;;;;18.13;8.50;;;;;;;;;;2532459;23;20017;-87
2023/06/30 02:04:52;;;;;;;27.58;7.78;;;;;;;;;;2473420;24;20016;-87
2023/06/30 02:06:28;;;;;;;13.98;7.35;;;;;;;;;;2473690;24;20438;-86
2023/06/30 02:07:51;;;;;;;20.65;8.35;;;;;;;;;;2463811;23;20450;-94
2023/06/30 02:09:34;;;;;;;18.67;7.13;;;;;;;;;;2462261;24;20012;-95
2023/06/30 02:10:55;;;;;;;15.75;8.48;;;;;;;;;;2472522;24;20017;-87
2023/06/30 02:12:17;;;;;;;16.33;7.72;;;;;;;;;;2461513;23;20032;-88
2023/06/30 02:13:58;;;;;;;15.32;8.15;;;;;;;;;;2497485;23;20014;-88
2023/06/30 02:19:49;;;;;;;30.42;11.20;;;;;;;;;;2486541;23;20015;-88
2023/06/30 02:21:10;;;;;;;27.75;9.38;;;;;;;;;;2444928;24;20046;-87
2023/06/30 02:22:32;;;;;;;24.38;9.48;;;;;;;;;;2421129;24;20033;-87
2023/06/30 02:24:01;;;;;;;16.08;7.53;;;;;;;;;;2475696;23;20387;-88
2023/06/30 02:25:45;;;;;;;29.17;8.77;;;;;;;;;;2483489;23;20018;-87
2023/06/30 02:29:34;;;;;;;;;;;;;;;;;;;;;
2023/06/30 02:31:02;;;;;;;18.35;7.05;;;;;;;;;;2509320;23;20019;-95
2023/06/30 02:32:53;;;;;;;15.90;7.50;;;;;;;;;;2495009;23;20014;-95
2023/06/30 02:34:13;;;;;;;15.38;7.63;;;;;;;;;;2534996;23;20021;-94
2023/06/30 02:35:35;;;;;;;14.98;8.07;;;;;;;;;;2522413;23;20014;-95
2023/06/30 02:36:56;;;;;;;19.92;8.15;;;;;;;;;;2521869;23;20114;-95
2023/06/30 02:38:17;;;;;;;19.98;9.02;;;;;;;;;;2518755;23;20022;-95
2023/06/30 02:39:41;;;;;;;16.48;7.43;;;;;;;;;;2520997;23;20021;-95
2023/06/30 02:41:02;;;;;;;21.67;7.57;;;;;;;;;;2529674;23;20017;-94
2023/06/30 02:42:24;;;;;;;18.70;7.55;;;;;;;;;;2508977;23;20096;-95
2023/06/30 02:43:45;;;;;;;;;;;;;;;;;;2517443;23;20010;-95
2023/06/30 02:45:09;;;;;;;22.85;7.63;;;;;;;;;;2521268;23;19905;-95
2023/06/30 02:46:35;;;;;;;19.52;7.60;;;;;;;;;;2518940;23;20014;-94
2023/06/30 02:48:02;;;;;;;15.05;7.43;;;;;;;;;;2534913;23;20010;-95
2023/06/30 02:49:26;;;;;;;14.10;7.28;;;;;;;;;;2523753;23;20021;-94
2023/06/30 02:50:47;;;;;;;16.90;7.50;;;;;;;;;;2518980;23;20420;-95
2023/06/30 02:52:22;;;;;;;44.45;16.88;;;;;;;;;;2501324;23;20063;-94
2023/06/30 02:53:43;;;;;;;15.95;8.13;;;;;;;;;;2509865;23;20010;-94
2023/06/30 02:55:08;;;;;;;19.55;7.40;;;;;;;;;;2506650;23;20011;-93
2023/06/30 02:56:29;;;;;;;16.35;7.88;;;;;;;;;;2510675;23;20007;-95
2023/06/30 02:57:50;;;;;;;14.75;7.10;;;;;;;;;;2520725;23;20018;-95
2023/06/30 03:01:12;;;;;;;35.22;9.98;;;;;;;;;;2535073;23;20014;-94
2023/06/30 03:02:42;;;;;;;19.75;9.20;;;;;;;;;;2508162;23;20021;-95
2023/06/30 03:04:13;;;;;;;19.88;8.40;;;;;;;;;;2519879;23;20357;-95
2023/06/30 03:05:44;;;;;;;24.27;10.52;;;;;;;;;;2519569;23;20273;-95
2023/06/30 03:07:14;;;;;;;23.35;9.57;;;;;;;;;;2518810;23;20010;-94
2023/06/30 03:08:35;;;;;;;20.65;8.57;;;;;;;;;;2519047;23;20037;-95
2023/06/30 03:10:09;;;;;;;;;;;;;;;;;;;;;
2023/06/30 03:13:52;;;;;;;38.35;12.63;;;;;;;;;;2519568;23;20021;-95
2023/06/30 03:15:13;;;;;;;23.45;7.53;;;;;;;;;;2521759;23;20017;-94
2023/06/30 03:16:36;;;;;;;20.42;8.43;;;;;;;;;;2530472;23;20043;-96
2023/06/30 03:17:57;;;;;;;18.88;8.70;;;;;;;;;;2523227;23;20018;-93
2023/06/30 03:19:20;;;;;;;22.45;9.18;;;;;;;;;;2518697;23;20262;-94
2023/06/30 03:20:41;;;;;;;19.27;7.30;;;;;;;;;;2528280;23;20021;-94
2023/06/30 03:22:03;;;;;;;16.90;7.85;;;;;;;;;;2530344;23;20010;-94
2023/06/30 03:23:24;;;;;;;23.33;9.20;;;;;;;;;;2516687;23;20010;-94
2023/06/30 03:25:00;;;;;;;14.00;7.95;;;;;;;;;;2529334;23;20008;-94
2023/06/30 03:26:24;;;;;;;15.48;7.10;;;;;;;;;;2546902;23;20010;-94
2023/06/30 03:27:49;;;;;;;14.48;7.65;;;;;;;;;;2533835;23;20018;-94
2023/06/30 03:29:10;;;;;;;17.48;8.32;;;;;;;;;;2531889;23;20074;-93
2023/06/30 03:30:31;;;;;;;17.10;7.85;;;;;;;;;;2530696;23;20088;-94
2023/06/30 03:31:55;;;;;;;21.17;9.13;;;;;;;;;;2528706;23;20010;-94
2023/06/30 03:33:16;;;;;;;19.55;8.18;;;;;;;;;;2529375;23;20022;-93
2023/06/30 03:34:37;;;;;;;13.95;7.93;;;;;;;;;;2530168;23;20021;-94
2023/06/30 03:36:00;;;;;;;12.98;7.10;;;;;;;;;;2533049;23;20010;-93
2023/06/30 03:37:23;;;;;;;15.95;7.40;;;;;;;;;;2530828;23;20014;-94
2023/06/30 03:38:58;;;;;;;20.75;8.93;;;;;;;;;;2531020;23;20010;-94
2023/06/30 03:40:19;;;;;;;14.40;7.57;;;;;;;;;;2534070;23;20006;-94
2023/06/30 03:41:40;;;;;;;18.42;8.52;;;;;;;;;;2532295;23;20045;-94
2023/06/30 03:43:01;;;;;;;22.10;9.07;;;;;;;;;;2508343;23;20021;-93
2023/06/30 03:44:32;;;;;;;19.73;8.40;;;;;;;;;;2531072;23;20018;-95
2023/06/30 03:45:53;;;;;;;18.15;8.55;;;;;;;;;;2533805;23;20522;-95
2023/06/30 03:47:14;;;;;;;16.73;8.50;;;;;;;;;;2531319;23;20182;-94
2023/06/30 03:48:35;;;;;;;16.33;8.50;;;;;;;;;;2532160;23;20014;-94
2023/06/30 03:50:18;;;;;;;15.25;8.13;;;;;;;;;;2529224;23;20033;-93
2023/06/30 03:58:23;;;;;;;;;;;;;;;;;;;;;
2023/06/30 04:00:12;;;;;;;20.13;9.45;;;;;;;;;;2547738;23;20005;-94
2023/06/30 04:01:35;;;;;;;21.60;8.93;;;;;;;;;;2534682;23;20017;-94
2023/06/30 04:03:02;;;;;;;44.85;15.23;;;;;;;;;;2512378;23;20471;-94
2023/06/30 04:04:52;;;;;;;16.45;8.30;;;;;;;;;;2512531;23;20026;-94
2023/06/30 04:06:33;;;;;;;15.48;8.38;;;;;;;;;;2509881;23;20011;-94
2023/06/30 04:10:12;;;;;;;15.63;8.43;;;;;;;;;;2523377;23;20014;-95
2023/06/30 04:11:33;;;;;;;16.13;8.75;;;;;;;;;;2510903;23;20011;-95
2023/06/30 04:13:00;;;;;;;21.73;8.87;;;;;;;;;;2519273;23;20015;-94
2023/06/30 04:14:21;;;;;;;19.48;8.43;;;;;;;;;;2512495;23;20402;-94
2023/06/30 04:15:53;;;;;;;22.85;9.52;;;;;;;;;;2507408;23;20022;-94
2023/06/30 04:17:15;;;;;;;18.88;9.32;;;;;;;;;;2547351;23;20017;-94
2023/06/30 04:18:57;;;;;;;14.90;8.45;;;;;;;;;;2532884;23;20045;-94
2023/06/30 04:20:18;;;;;;;16.90;9.35;;;;;;;;;;2537067;23;20009;-94
2023/06/30 04:21:49;;;;;;;26.98;10.18;;;;;;;;;;2530115;23;20025;-94
2023/06/30 04:23:13;;;;;;;15.63;8.38;;;;;;;;;;2532766;23;20020;-93
2023/06/30 04:24:39;;;;;;;17.20;8.07;;;;;;;;;;2531393;23;20018;-95
2023/06/30 04:26:04;;;;;;;27.15;9.95;;;;;;;;;;2530451;23;20014;-94
2023/06/30 04:27:26;;;;;;;19.45;8.60;;;;;;;;;;2532041;23;20034;-95
2023/06/30 04:28:53;;;;;;;;;;;;;;;;;;2532783;23;20014;-93
2023/06/30 04:30:26;;;;;;;25.83;9.80;;;;;;;;;;2534074;23;19901;-94
2023/06/30 04:32:20;;;;;;;14.23;7.32;;;;;;;;;;2530828;23;20199;-93
2023/06/30 04:38:19;;;;;;;16.42;8.07;;;;;;;;;;2468641;24;20044;-95
2023/06/30 04:40:05;;;;;;;19.58;7.82;;;;;;;;;;2477288;24;20016;-94
2023/06/30 04:44:09;;;;;;;26.13;10.00;;;;;;;;;;2425147;24;20010;-95
2023/06/30 04:55:51;;;;;;;16.77;9.27;;;;;;;;;;2416993;24;20064;-95
2023/06/30 04:57:34;;;;;;;19.02;9.95;;;;;;;;;;2406709;24;20022;-95
2023/06/30 04:59:50;;;;;;;20.88;8.73;;;;;;;;;;2406821;24;20011;-94
2023/06/30 05:02:30;;;;;;;27.85;9.52;;;;;;;;;;2395812;24;20011;-93
2023/06/30 05:03:23;;;;;;;19.60;8.85;;;;;;;;;;2384424;24;20031;-93
2023/06/30 05:13:33;;;;;;;25.30;10.77;;;;;;;;;;2385664;24;20038;-92
2023/06/30 05:15:07;;;;;;;;;;;;;;;;;;;;;
2023/06/30 05:27:00;;;;;;;;;;;;;;;;;;;;;
2023/06/30 05:33:20;;;;;;;14.10;8.55;;;;;;;;;;2443916;24;20033;-91
2023/06/30 05:35:25;;;;;;;;;;;;;;;;;;;;;
2023/06/30 05:41:22;;;;;;;21.33;10.02;;;;;;;;;;2495890;23;20365;-92
2023/06/30 05:42:55;;;;;;;16.35;8.25;;;;;;;;;;2478143;23;20433;-91
2023/06/30 05:57:34;;;;;;;;;;;;;;;;;;;;;
2023/06/30 06:02:58;;;;;;;;;;;;;;;;;;;;;
2023/06/30 06:33:48;;;;;;;27.10;12.35;;;;;;;;;;2533044;23;20025;-74
2023/06/30 06:37:07;;;;;;;22.02;7.20;;;;;;;;;;2553999;23;20439;-78
2023/06/30 06:38:56;;;;;;;10.40;5.60;;;;;;;;;;2553840;23;20404;-79
2023/06/30 06:53:30;;;;;;;10.05;5.60;;;;;;;;;;2531902;23;20026;-78
2023/06/30 06:54:51;;;;;;;11.27;4.85;;;;;;;;;;2520577;23;20014;-80
2023/06/30 06:56:12;;;;;;;8.55;4.53;;;;;;;;;;2514507;23;20026;-81
2023/06/30 06:57:33;;;;;;;11.70;4.80;;;;;;;;;;2527570;23;20018;-81
2023/06/30 06:58:54;;;;;;;11.98;4.85;;;;;;;;;;2520463;23;20006;-80
2023/06/30 07:00:43;;;;;;;24.20;7.80;;;;;;;;;;2513897;23;20017;-80
2023/06/30 07:02:04;;;;;;;11.77;5.07;;;;;;;;;;2531754;23;20006;-79
2023/06/30 07:03:29;;;;;;;10.30;4.72;;;;;;;;;;2518594;23;20014;-79
2023/06/30 07:05:43;;;;;;;11.30;4.75;;;;;;;;;;2515779;23;20045;-79
2023/06/30 07:13:43;;;;;;;;;;;;;;;;;;;;;
2023/06/30 07:46:44;;;;;;;17.30;6.10;;;;;;;;;;2495205;23;20069;-75
2023/06/30 07:48:05;;;;;;;6.60;3.40;;;;;;;;;;2532070;23;20350;-73
2023/06/30 07:49:26;;;;;;;7.22;3.60;;;;;;;;;;2543283;23;20013;-74
2023/06/30 07:50:47;;;;;;;15.70;4.30;;;;;;;;;;2544275;23;20010;-74
2023/06/30 07:52:08;;;;;;;8.23;3.10;;;;;;;;;;2544611;23;20435;-74
2023/06/30 07:53:28;;;;;;;6.82;3.17;;;;;;;;;;2545051;23;20339;-73
2023/06/30 07:54:53;;;;;;;5.82;2.90;;;;;;;;;;2544169;23;20010;-74
2023/06/30 07:56:13;;;;;;;13.75;4.97;;;;;;;;;;2529230;23;20018;-74
2023/06/30 07:57:35;;;;;;;9.75;3.30;;;;;;;;;;2527392;23;20022;-74
2023/06/30 07:58:55;;;;;;;6.40;2.78;;;;;;;;;;2527706;23;20355;-73
2023/06/30 08:00:18;;;;;;;8.88;3.85;;;;;;;;;;2539670;23;20032;-74
2023/06/30 08:01:39;;;;;;;13.00;4.10;;;;;;;;;;2544894;23;20474;-74
2023/06/30 08:03:00;;;;;;;10.63;4.00;;;;;;;;;;2543253;23;20014;-74
2023/06/30 08:04:21;;;;;;;16.23;5.32;;;;;;;;;;2526983;23;20020;-73
2023/06/30 08:05:42;;;;;;;15.45;5.43;;;;;;;;;;2536879;23;20053;-74
2023/06/30 08:07:04;;;;;;;12.43;4.57;;;;;;;;;;2528918;23;20448;-73
2023/06/30 08:08:24;;;;;;;9.25;3.33;;;;;;;;;;2540372;23;20435;-73
2023/06/30 08:09:46;;;;;;;9.13;3.85;;;;;;;;;;2532435;23;20010;-74
2023/06/30 08:11:07;;;;;;;6.40;3.13;;;;;;;;;;2539853;23;20316;-74
2023/06/30 08:12:41;;;;;;;13.35;4.25;;;;;;;;;;2531043;23;20452;-75
2023/06/30 08:14:04;;;;;;;6.95;3.20;;;;;;;;;;2530222;23;20049;-75
2023/06/30 08:15:24;;;;;;;8.95;3.35;;;;;;;;;;2526951;23;20010;-75
2023/06/30 08:16:45;;;;;;;11.93;4.85;;;;;;;;;;2540341;23;20005;-76
2023/06/30 08:18:13;;;;;;;14.00;5.45;;;;;;;;;;2528740;23;20371;-77
2023/06/30 08:19:41;;;;;;;11.15;4.45;;;;;;;;;;2539817;23;20013;-76
2023/06/30 08:21:05;;;;;;;10.10;3.88;;;;;;;;;;2530471;23;20021;-76
2023/06/30 08:22:27;;;;;;;10.23;3.85;;;;;;;;;;2526342;23;20010;-77
2023/06/30 08:23:48;;;;;;;7.15;2.85;;;;;;;;;;2527831;23;20013;-77
2023/06/30 08:25:09;;;;;;;12.32;4.15;;;;;;;;;;2528245;23;20478;-76
2023/06/30 08:26:30;;;;;;;6.85;3.30;;;;;;;;;;2540802;23;20006;-75
2023/06/30 08:27:53;;;;;;;10.43;3.83;;;;;;;;;;2543857;23;20470;-74
2023/06/30 08:29:14;;;;;;;6.90;3.42;;;;;;;;;;2528700;23;20010;-75
2023/06/30 08:31:04;;;;;;;8.00;3.60;;;;;;;;;;2528746;23;20383;-75
2023/06/30 08:32:25;;;;;;;6.00;2.75;;;;;;;;;;2531069;23;20014;-75
2023/06/30 08:33:46;;;;;;;14.43;4.55;;;;;;;;;;2537830;23;20447;-74
2023/06/30 08:35:07;;;;;;;8.98;4.00;;;;;;;;;;2530066;23;20006;-76
2023/06/30 08:36:28;;;;;;;9.95;4.05;;;;;;;;;;2524305;23;20088;-75
2023/06/30 08:37:55;;;;;;;6.70;3.33;;;;;;;;;;2539065;23;20422;-76
2023/06/30 08:39:38;;;;;;;14.20;5.05;;;;;;;;;;2542474;23;20481;-75
2023/06/30 08:41:00;;;;;;;10.52;3.83;;;;;;;;;;2528874;23;20340;-73
2023/06/30 08:42:22;;;;;;;7.05;2.95;;;;;;;;;;2526376;23;20010;-73
2023/06/30 08:43:43;;;;;;;10.55;4.38;;;;;;;;;;2535099;23;20002;-73
2023/06/30 08:45:05;;;;;;;10.93;4.32;;;;;;;;;;2530581;23;20018;-75
2023/06/30 08:46:27;;;;;;;8.65;3.38;;;;;;;;;;2517241;23;20010;-77
2023/06/30 08:48:20;;;;;;;8.57;3.45;;;;;;;;;;2513306;23;20018;-78
2023/06/30 08:49:41;;;;;;;;;;;;;;;;;;2515869;23;20022;-78
2023/06/30 08:55:01;;;;;;;9.77;4.03;;;;;;;;;;2530543;23;20002;-75
2023/06/30 08:56:23;;;;;;;7.25;3.25;;;;;;;;;;2518696;23;20046;-76
2023/06/30 08:57:44;;;;;;;;;;;;;;;;;;2510849;23;20018;-76
2023/06/30 09:00:24;;;;;;;9.40;3.70;;;;;;;;;;2519164;23;20315;-78
2023/06/30 09:01:14;;;;;;;13.40;5.03;;;;;;;;;;2522965;23;20010;-78
2023/06/30 09:02:38;;;;;;;14.73;4.97;;;;;;;;;;2522149;23;20022;-78
2023/06/30 09:05:58;;;;;;;12.88;3.75;;;;;;;;;;2531168;23;20355;-76
2023/06/30 09:07:26;;;;;;;7.43;3.95;;;;;;;;;;2518931;23;20014;-76
2023/06/30 09:09:02;;;;;;;15.48;4.70;;;;;;;;;;2516374;23;20018;-75
2023/06/30 09:10:41;;;;;;;6.82;3.00;;;;;;;;;;2519782;23;20022;-75
2023/06/30 09:14:28;;;;;;;7.00;3.40;;;;;;;;;;2533437;23;19998;-76
2023/06/30 09:15:48;;;;;;;5.63;3.15;;;;;;;;;;2534649;23;20006;-77
2023/06/30 09:17:12;;;;;;;8.40;3.47;;;;;;;;;;2518118;23;20006;-76
2023/06/30 09:18:47;;;;;;;8.80;3.95;;;;;;;;;;2534359;23;20009;-75
2023/06/30 09:20:11;;;;;;;10.65;4.53;;;;;;;;;;2517378;23;20490;-77
2023/06/30 09:21:32;;;;;;;5.97;3.13;;;;;;;;;;2530274;23;20010;-75
2023/06/30 09:22:53;;;;;;;7.20;3.42;;;;;;;;;;2519849;23;20527;-75
2023/06/30 09:24:14;;;;;;;7.03;3.88;;;;;;;;;;2529612;23;20006;-75
2023/06/30 09:25:35;;;;;;;8.15;3.70;;;;;;;;;;2518930;23;20011;-75
2023/06/30 09:27:00;;;;;;;14.77;4.93;;;;;;;;;;2513894;23;20360;-74
2023/06/30 09:28:21;;;;;;;7.53;3.50;;;;;;;;;;2515712;23;20022;-75
2023/06/30 09:29:42;;;;;;;7.43;3.50;;;;;;;;;;2529976;23;20017;-76
2023/06/30 09:31:06;;;;;;;7.03;3.00;;;;;;;;;;2533893;23;20017;-75
2023/06/30 09:32:34;;;;;;;8.23;3.65;;;;;;;;;;2532810;23;20018;-80
2023/06/30 09:35:56;;;;;;;8.05;3.65;;;;;;;;;;2533124;23;20001;-77
2023/06/30 09:37:17;;;;;;;10.10;4.85;;;;;;;;;;2520031;23;20090;-77
2023/06/30 09:38:41;;;;;;;9.65;4.00;;;;;;;;;;2516899;23;20010;-78
2023/06/30 09:40:02;;;;;;;7.75;3.70;;;;;;;;;;2521886;23;20468;-76
2023/06/30 09:41:26;;;;;;;9.75;3.67;;;;;;;;;;2515451;23;20011;-77
2023/06/30 09:42:57;;;;;;;10.10;3.63;;;;;;;;;;2516897;23;20341;-75
2023/06/30 09:44:22;;;;;;;7.82;4.10;;;;;;;;;;2519146;23;20360;-76
2023/06/30 09:45:47;;;;;;;11.27;5.05;;;;;;;;;;2518857;23;20014;-76
2023/06/30 09:47:11;;;;;;;6.90;3.47;;;;;;;;;;2530419;23;20341;-78
2023/06/30 09:48:39;;;;;;;12.15;4.70;;;;;;;;;;2531393;23;20018;-77
2023/06/30 09:50:01;;;;;;;6.03;3.50;;;;;;;;;;2522026;23;20011;-75
2023/06/30 09:53:05;;;;;;;8.13;3.58;;;;;;;;;;2531222;23;20010;-77
2023/06/30 09:54:26;;;;;;;;;;;;;;;;;;2522080;23;20467;-77
2023/06/30 09:55:48;;;;;;;8.85;3.85;;;;;;;;;;2530633;23;19908;-76
2023/06/30 09:57:09;;;;;;;9.05;4.07;;;;;;;;;;2520684;23;20468;-77
2023/06/30 09:58:31;;;;;;;8.43;3.80;;;;;;;;;;2527758;23;20467;-75
2023/06/30 09:59:52;;;;;;;10.32;4.22;;;;;;;;;;2530883;23;20010;-76
2023/06/30 10:01:17;;;;;;;10.95;3.80;;;;;;;;;;2533367;23;20343;-76
2023/06/30 10:02:39;;;;;;;8.43;4.35;;;;;;;;;;2519619;23;20464;-76
2023/06/30 10:04:04;;;;;;;5.43;3.28;;;;;;;;;;2529265;23;20010;-74
2023/06/30 10:05:29;;;;;;;8.40;4.07;;;;;;;;;;2532493;23;20010;-75
2023/06/30 10:06:54;;;;;;;6.93;3.70;;;;;;;;;;2520627;23;20014;-75
2023/06/30 10:08:15;;;;;;;5.43;3.67;;;;;;;;;;2528859;23;20017;-75
2023/06/30 10:09:37;;;;;;;7.47;4.30;;;;;;;;;;2521700;23;20064;-77
2023/06/30 10:15:39;;;;;;;11.43;4.15;;;;;;;;;;2500387;23;20095;-77
2023/06/30 10:17:01;;;;;;;8.43;4.60;;;;;;;;;;2511914;23;20011;-78
2023/06/30 10:18:23;;;;;;;5.93;3.63;;;;;;;;;;2527316;23;20018;-78
2023/06/30 10:19:44;;;;;;;8.73;4.30;;;;;;;;;;2532038;23;20017;-78
2023/06/30 10:21:17;;;;;;;7.05;3.67;;;;;;;;;;2521064;23;20010;-77
2023/06/30 10:23:00;;;;;;;;;;;;;;;;;;;;;
2023/06/30 10:24:37;;;;;;;11.77;4.43;;;;;;;;;;2533049;23;20010;-76
2023/06/30 10:25:58;;;;;;;8.32;4.10;;;;;;;;;;2521091;23;20006;-76
2023/06/30 10:27:20;;;;;;;11.80;4.97;;;;;;;;;;2527361;23;20306;-75
2023/06/30 10:28:41;;;;;;;13.43;5.68;;;;;;;;;;2518331;23;20385;-76
2023/06/30 10:30:02;;;;;;;11.55;4.28;;;;;;;;;;2526907;23;20006;-75
2023/06/30 10:31:26;;;;;;;6.32;3.40;;;;;;;;;;2532107;23;20014;-76
2023/06/30 10:32:47;;;;;;;13.90;5.43;;;;;;;;;;2520569;23;20022;-76
2023/06/30 10:34:09;;;;;;;10.48;4.93;;;;;;;;;;2528743;23;20344;-77
2023/06/30 10:35:46;;;;;;;;;;;;;;;;;;2530528;23;20010;-78
2023/06/30 10:37:10;;;;;;;12.95;4.97;;;;;;;;;;2520384;23;19969;-78
2023/06/30 10:38:50;;;;;;;10.10;3.95;;;;;;;;;;2502414;23;20471;-78
2023/06/30 10:40:30;;;;;;;6.78;3.70;;;;;;;;;;2522622;23;20006;-78
2023/06/30 10:41:51;;;;;;;14.80;5.10;;;;;;;;;;2526727;23;20006;-79
2023/06/30 10:43:13;;;;;;;9.25;4.25;;;;;;;;;;2522353;23;20014;-82
2023/06/30 10:44:38;;;;;;;9.43;4.10;;;;;;;;;;2528355;23;20018;-79
2023/06/30 10:46:08;;;;;;;4.93;3.53;;;;;;;;;;2521758;23;20346;-79
2023/06/30 10:47:53;;;;;;;12.63;4.80;;;;;;;;;;2517230;23;20313;-79
2023/06/30 10:49:32;;;;;;;8.02;3.53;;;;;;;;;;2528909;23;20010;-78
2023/06/30 10:50:53;;;;;;;9.55;3.92;;;;;;;;;;2521585;23;20010;-78
2023/06/30 10:52:29;;;;;;;12.10;5.45;;;;;;;;;;2517623;23;20010;-79
2023/06/30 10:53:51;;;;;;;13.43;5.32;;;;;;;;;;2532690;23;20013;-79
2023/06/30 10:55:18;;;;;;;10.45;4.40;;;;;;;;;;2520423;23;20014;-78
2023/06/30 10:57:04;;;;;;;10.27;3.95;;;;;;;;;;2519262;23;20069;-79
2023/06/30 10:58:26;;;;;;;10.07;4.57;;;;;;;;;;2518994;23;20085;-77
2023/06/30 10:59:48;;;;;;;8.98;4.13;;;;;;;;;;2528229;23;20451;-78
2023/06/30 11:01:28;;;;;;;11.30;4.95;;;;;;;;;;2533661;23;20006;-78
2023/06/30 11:02:53;;;;;;;15.85;6.15;;;;;;;;;;2517713;23;20014;-78
2023/06/30 11:04:14;;;;;;;11.38;4.85;;;;;;;;;;2516501;23;20010;-77
2023/06/30 11:07:54;;;;;;;12.65;4.60;;;;;;;;;;2506124;23;20341;-76
2023/06/30 11:09:18;;;;;;;4.90;3.42;;;;;;;;;;2494904;23;20015;-76
2023/06/30 11:11:07;;;;;;;12.27;4.25;;;;;;;;;;2501919;23;20014;-76
2023/06/30 11:12:31;;;;;;;13.90;4.45;;;;;;;;;;2505827;23;20361;-79
2023/06/30 11:14:07;;;;;;;11.98;4.47;;;;;;;;;;2520073;23;20011;-77
2023/06/30 11:15:28;;;;;;;9.43;4.32;;;;;;;;;;2530198;23;20037;-77
2023/06/30 11:17:22;;;;;;;8.90;3.83;;;;;;;;;;2519502;23;20018;-78
2023/06/30 11:26:49;;;;;;;11.95;4.78;;;;;;;;;;2482987;23;20052;-78
2023/06/30 11:28:12;;;;;;;7.90;4.22;;;;;;;;;;2505602;23;20007;-78
2023/06/30 11:30:07;;;;;;;7.20;3.42;;;;;;;;;;2507349;23;20011;-78
2023/06/30 11:33:27;;;;;;;6.78;3.67;;;;;;;;;;2533073;23;20328;-78
2023/06/30 11:34:54;;;;;;;7.82;3.80;;;;;;;;;;2533016;23;20006;-78
2023/06/30 11:36:15;;;;;;;13.38;5.05;;;;;;;;;;2529224;23;20214;-78
2023/06/30 11:37:57;;;;;;;11.65;4.80;;;;;;;;;;2530738;23;20322;-78
2023/06/30 11:39:18;;;;;;;6.40;4.40;;;;;;;;;;2517171;23;20025;-76
2023/06/30 11:40:46;;;;;;;9.40;4.40;;;;;;;;;;2517372;23;20014;-78
2023/06/30 11:42:07;;;;;;;12.15;4.43;;;;;;;;;;2527208;23;20577;-78
2023/06/30 11:48:22;;;;;;;8.98;3.85;;;;;;;;;;2507700;23;20011;-77
2023/06/30 11:51:45;;;;;;;14.70;5.68;;;;;;;;;;2462204;24;20037;-79
2023/06/30 12:00:58;;;;;;;11.93;4.60;;;;;;;;;;2447802;24;20013;-80
2023/06/30 12:02:20;;;;;;;13.77;5.65;;;;;;;;;;2436829;24;20013;-80
2023/06/30 12:05:58;;;;;;;13.88;5.20;;;;;;;;;;2413150;24;20010;-80
2023/06/30 12:07:22;;;;;;;10.23;4.60;;;;;;;;;;2416842;24;20045;-79
2023/06/30 14:41:30;;;;;;;48.30;12.43;;;;;;;;;;2520780;23;20033;-80
2023/06/30 16:23:36;;;;;;;13.77;7.38;;;;;;;;;;2539968;23;20296;-94
2023/06/30 16:25:09;;;;;;;11.68;6.38;;;;;;;;;;2542880;23;20013;-94
2023/06/30 16:26:30;;;;;;;8.60;5.43;;;;;;;;;;2545868;23;20420;-94
2023/06/30 16:27:51;;;;;;;12.43;6.32;;;;;;;;;;2539206;23;20016;-94
2023/06/30 16:29:12;;;;;;;11.45;5.95;;;;;;;;;;2541254;23;20089;-94
2023/06/30 16:30:42;;;;;;;10.77;6.07;;;;;;;;;;2541441;23;20013;-95
2023/06/30 16:32:07;;;;;;;16.67;5.50;;;;;;;;;;2531775;23;20052;-94
2023/06/30 16:33:47;;;;;;;10.15;5.28;;;;;;;;;;2541205;23;20010;-94
2023/06/30 16:35:11;;;;;;;12.90;6.15;;;;;;;;;;2544229;23;20065;-93
2023/06/30 16:36:32;;;;;;;14.15;6.30;;;;;;;;;;2545343;23;20014;-94
2023/06/30 16:37:53;;;;;;;11.73;5.85;;;;;;;;;;2540762;23;20009;-93
2023/06/30 16:39:14;;;;;;;11.77;5.65;;;;;;;;;;2542297;23;20070;-94
2023/06/30 16:40:36;;;;;;;11.82;6.40;;;;;;;;;;2543900;23;20062;-93
2023/06/30 16:41:57;;;;;;;10.98;5.97;;;;;;;;;;2540158;23;20020;-94
2023/06/30 16:43:18;;;;;;;9.55;5.47;;;;;;;;;;2541726;23;20045;-95
2023/06/30 16:44:39;;;;;;;15.02;6.75;;;;;;;;;;2543231;23;20015;-93
2023/06/30 16:46:02;;;;;;;9.68;5.82;;;;;;;;;;2540602;23;20021;-94
2023/06/30 16:47:24;;;;;;;11.80;6.30;;;;;;;;;;2540981;23;20025;-94
2023/06/30 16:48:45;;;;;;;15.73;6.35;;;;;;;;;;2543128;23;20058;-94
2023/06/30 16:50:07;;;;;;;11.70;5.95;;;;;;;;;;2541907;23;20021;-94
2023/06/30 16:51:28;;;;;;;16.25;7.05;;;;;;;;;;2538229;23;20009;-94
2023/06/30 16:52:49;;;;;;;11.90;6.70;;;;;;;;;;2543413;23;20041;-94
2023/06/30 16:54:13;;;;;;;16.42;7.30;;;;;;;;;;2538396;23;20009;-94
2023/06/30 16:55:57;;;;;;;13.90;5.85;;;;;;;;;;2541121;23;20017;-94
2023/06/30 16:57:50;;;;;;;;;;;;;;;;;;;;;
2023/06/30 16:59:16;;;;;;;12.80;5.93;;;;;;;;;;2557160;23;20299;-93
2023/06/30 17:00:37;;;;;;;12.05;6.25;;;;;;;;;;2533255;23;20010;-93
2023/06/30 17:01:58;;;;;;;12.50;5.55;;;;;;;;;;2542587;23;20024;-94
2023/06/30 17:03:19;;;;;;;9.88;5.78;;;;;;;;;;2541653;23;20018;-93
2023/06/30 17:04:40;;;;;;;10.50;5.90;;;;;;;;;;2540671;23;20009;-94
2023/06/30 17:06:36;;;;;;;11.17;5.50;;;;;;;;;;2540664;23;19989;-91
2023/06/30 17:45:29;;;;;;;20.77;10.40;;;;;;;;;;2533352;23;20014;-87
2023/06/30 17:46:50;;;;;;;13.20;6.97;;;;;;;;;;2545685;23;20032;-86
2023/06/30 17:48:40;;;;;;;8.93;5.40;;;;;;;;;;2541729;23;20327;-86
2023/06/30 17:52:15;;;;;;;19.17;9.07;;;;;;;;;;2515318;23;20078;-87
2023/06/30 17:53:36;;;;;;;10.45;5.88;;;;;;;;;;2544037;23;20132;-86
2023/06/30 17:55:01;;;;;;;7.78;5.10;;;;;;;;;;2541969;23;20021;-86
2023/06/30 17:56:26;;;;;;;12.30;6.32;;;;;;;;;;2542747;23;20024;-87
2023/06/30 17:57:56;;;;;;;10.75;5.45;;;;;;;;;;2542267;23;20021;-86
2023/06/30 17:59:17;;;;;;;9.63;5.25;;;;;;;;;;2544797;23;20018;-86
2023/06/30 18:00:42;;;;;;;10.60;5.57;;;;;;;;;;2540769;23;20010;-86
2023/06/30 18:02:03;;;;;;;8.73;5.60;;;;;;;;;;2539945;23;20056;-87
2023/06/30 18:03:31;;;;;;;11.23;5.90;;;;;;;;;;2543632;23;20081;-86
2023/06/30 18:05:06;;;;;;;13.82;6.03;;;;;;;;;;2540583;23;20499;-87
2023/06/30 18:06:27;;;;;;;21.33;11.82;;;;;;;;;;2542764;23;20025;-86
2023/06/30 18:07:54;;;;;;;14.52;7.30;;;;;;;;;;2543551;23;20009;-87
2023/06/30 18:09:21;;;;;;;14.70;6.45;;;;;;;;;;2540384;23;20006;-85
2023/06/30 18:10:42;;;;;;;9.45;5.05;;;;;;;;;;2542437;23;20013;-86
2023/06/30 18:12:03;;;;;;;9.52;5.70;;;;;;;;;;2525231;23;20401;-85
2023/06/30 18:13:24;;;;;;;12.68;7.10;;;;;;;;;;2540724;23;20020;-86
2023/06/30 18:15:03;;;;;;;10.68;6.05;;;;;;;;;;2539848;23;20021;-85
2023/06/30 18:16:24;;;;;;;9.57;5.50;;;;;;;;;;2546577;23;20016;-86
2023/06/30 18:18:04;;;;;;;17.33;11.65;;;;;;;;;;2539056;23;20013;-87
2023/06/30 18:19:33;;;;;;;12.98;5.97;;;;;;;;;;2540354;23;20435;-87
2023/06/30 18:21:23;;;;;;;13.63;6.00;;;;;;;;;;2546122;23;20014;-87
2023/06/30 18:22:50;;;;;;;11.07;6.32;;;;;;;;;;2557296;23;20291;-87
2023/06/30 18:24:11;;;;;;;20.60;13.63;;;;;;;;;;2544697;23;20005;-87
2023/06/30 18:25:32;;;;;;;11.98;6.88;;;;;;;;;;2540480;23;20510;-87
2023/06/30 18:26:53;;;;;;;15.60;7.88;;;;;;;;;;2540819;23;20526;-87
2023/06/30 18:28:14;;;;;;;8.60;5.78;;;;;;;;;;2538855;23;20009;-87
2023/06/30 18:29:35;;;;;;;11.30;5.63;;;;;;;;;;2537461;23;20018;-87
2023/06/30 18:30:59;;;;;;;11.48;5.43;;;;;;;;;;2541863;23;20014;-87
2023/06/30 18:34:35;;;;;;;11.35;5.93;;;;;;;;;;2557235;23;20009;-86
2023/06/30 18:36:17;;;;;;;11.80;5.50;;;;;;;;;;2541834;23;20009;-87